createdAt,value
2022-08-28T00:00:09.792Z,3.53
2022-08-28T00:02:36.326Z,3.80
2022-08-28T00:05:03.619Z,3.28
2022-08-28T00:07:30.204Z,3.58
2022-08-28T00:09:56.715Z,3.20
2022-08-28T00:12:23.311Z,3.05
2022-08-28T00:14:49.812Z,3.17
2022-08-28T00:17:16.310Z,3.10
2022-08-28T00:19:42.812Z,3.75
2022-08-28T00:22:09.494Z,3.17
2022-08-28T00:24:36.822Z,3.13
2022-08-28T00:27:22.609Z,3.20
2022-08-28T00:29:49.180Z,3.33
2022-08-28T00:32:15.714Z,3.60
2022-08-28T00:34:42.290Z,3.25
2022-08-28T00:37:08.873Z,3.20
2022-08-28T00:39:36.012Z,3.25
2022-08-28T00:42:03.017Z,3.33
2022-08-28T00:44:30.359Z,3.03
2022-08-28T00:46:59.036Z,3.67
2022-08-28T00:49:29.880Z,3.13
2022-08-28T00:52:12.499Z,3.10
2022-08-28T00:54:56.873Z,3.30
2022-08-28T00:57:30.427Z,3.15
2022-08-28T00:59:57.351Z,3.20
2022-08-28T01:02:24.573Z,3.60
2022-08-28T01:04:51.213Z,2.60
2022-08-28T01:07:23.231Z,3.33
2022-08-28T01:09:53.627Z,3.70
2022-08-28T01:12:27.468Z,3.55
2022-08-28T01:14:59.989Z,3.25
2022-08-28T01:17:28.890Z,3.20
2022-08-28T01:19:58.909Z,3.38
2022-08-28T01:22:41.504Z,2.90
2022-08-28T01:25:13.179Z,3.15
2022-08-28T01:27:41.845Z,2.97
2022-08-28T01:30:13.881Z,2.95
2022-08-28T01:32:44.291Z,3.60
2022-08-28T01:35:21.214Z,2.88
2022-08-28T01:37:47.703Z,3.10
2022-08-28T01:40:29.958Z,3.20
2022-08-28T01:42:56.511Z,2.50
2022-08-28T01:45:24.161Z,3.50
2022-08-28T01:47:51.402Z,2.97
2022-08-28T01:50:20.232Z,3.15
2022-08-28T01:52:47.098Z,2.80
2022-08-28T01:55:14.087Z,2.72
2022-08-28T01:57:46.048Z,3.10
2022-08-28T02:00:14.008Z,3.00
2022-08-28T02:02:40.600Z,2.90
2022-08-28T02:05:08.146Z,2.53
2022-08-28T02:07:35.198Z,2.45
2022-08-28T02:10:08.917Z,2.17
2022-08-28T02:12:35.879Z,2.50
2022-08-28T02:15:02.480Z,2.60
2022-08-28T02:17:29.554Z,2.85
2022-08-28T02:19:56.069Z,2.58
2022-08-28T02:22:22.657Z,2.80
2022-08-28T02:24:49.357Z,3.20
2022-08-28T02:27:15.852Z,2.90
2022-08-28T02:29:42.374Z,3.22
2022-08-28T02:32:08.864Z,3.03
2022-08-28T02:34:35.970Z,2.80
2022-08-28T02:37:02.636Z,2.78
2022-08-28T02:39:29.247Z,2.90
2022-08-28T02:41:55.797Z,2.80
2022-08-28T02:44:22.304Z,2.92
2022-08-28T02:46:49.058Z,3.70
2022-08-28T02:49:15.560Z,3.45
2022-08-28T02:51:42.274Z,3.78
2022-08-28T02:54:08.857Z,3.90
2022-08-28T02:56:35.361Z,3.50
2022-08-28T02:59:01.947Z,3.47
2022-08-28T03:01:28.502Z,3.55
2022-08-28T03:03:55.032Z,3.28
2022-08-28T03:06:23.002Z,3.45
2022-08-28T03:08:49.525Z,3.42
2022-08-28T03:11:16.023Z,3.33
2022-08-28T03:13:42.549Z,3.20
2022-08-28T03:16:09.052Z,3.15
2022-08-28T03:18:35.612Z,3.60
2022-08-28T03:21:02.121Z,3.03
2022-08-28T03:23:29.071Z,2.72
2022-08-28T03:26:03.086Z,3.00
2022-08-28T03:28:33.439Z,3.05
2022-08-28T03:31:00.651Z,3.60
2022-08-28T03:33:27.630Z,3.83
2022-08-28T03:35:55.475Z,3.70
2022-08-28T03:38:22.279Z,3.42
2022-08-28T03:40:52.115Z,3.28
2022-08-28T03:43:24.379Z,3.80
2022-08-28T03:45:58.755Z,3.75
2022-08-28T03:48:26.974Z,3.42
2022-08-28T03:50:53.471Z,3.60
2022-08-28T03:53:25.524Z,2.97
2022-08-28T03:55:52.042Z,3.25
2022-08-28T03:58:19.349Z,2.58
2022-08-28T04:00:46.326Z,3.38
2022-08-28T04:03:13.476Z,3.10
2022-08-28T04:05:41.271Z,3.22
2022-08-28T04:08:07.889Z,2.78
2022-08-28T04:10:34.691Z,3.13
2022-08-28T04:13:01.339Z,2.72
2022-08-28T04:15:28.076Z,3.25
2022-08-28T04:17:56.186Z,2.97
2022-08-28T04:20:22.847Z,2.90
2022-08-28T04:22:49.334Z,2.95
2022-08-28T04:25:22.284Z,3.13
2022-08-28T04:27:49.846Z,3.55
2022-08-28T04:30:16.507Z,2.80
2022-08-28T04:32:43.003Z,3.50
2022-08-28T04:35:12.131Z,3.03
2022-08-28T04:37:39.236Z,2.88
2022-08-28T04:40:09.813Z,2.63
2022-08-28T04:42:37.836Z,3.10
2022-08-28T04:45:06.237Z,2.83
2022-08-28T04:47:38.703Z,2.97
2022-08-28T04:50:06.332Z,2.92
2022-08-28T04:52:32.814Z,3.05
2022-08-28T04:54:59.310Z,3.20
2022-08-28T04:57:30.437Z,3.10
2022-08-28T04:59:59.815Z,3.08
2022-08-28T05:02:26.467Z,2.80
2022-08-28T05:04:53.077Z,2.75
2022-08-28T05:07:19.576Z,2.55
2022-08-28T05:09:46.128Z,2.72
2022-08-28T05:12:17.114Z,2.75
2022-08-28T05:14:43.942Z,2.63
2022-08-28T05:17:12.804Z,3.40
2022-08-28T05:19:39.296Z,3.03
2022-08-28T05:22:05.834Z,3.47
2022-08-28T05:24:32.425Z,3.50
2022-08-28T05:26:58.922Z,4.22
2022-08-28T05:29:25.613Z,3.75
2022-08-28T05:31:52.439Z,3.30
2022-08-28T05:34:18.949Z,3.65
2022-08-28T05:36:45.446Z,3.42
2022-08-28T05:39:12.943Z,3.25
2022-08-28T05:41:41.778Z,3.40
2022-08-28T05:44:11.843Z,3.20
2022-08-28T05:46:40.568Z,3.08
2022-08-28T05:49:09.997Z,3.20
2022-08-28T05:51:40.102Z,3.70
2022-08-28T05:54:06.695Z,3.30
2022-08-28T05:56:36.300Z,3.67
2022-08-28T05:59:04.174Z,3.55
2022-08-28T06:01:33.215Z,3.10
2022-08-28T06:04:02.187Z,3.58
2022-08-28T06:06:30.328Z,3.80
2022-08-28T06:08:59.150Z,4.10
2022-08-28T06:11:30.326Z,3.72
2022-08-28T06:14:00.791Z,3.67
2022-08-28T06:16:28.642Z,3.55
2022-08-28T06:18:55.888Z,3.75
2022-08-28T06:21:22.455Z,3.35
2022-08-28T06:23:48.990Z,3.38
2022-08-28T06:26:15.539Z,3.60
2022-08-28T06:28:47.632Z,3.47
2022-08-28T06:31:25.047Z,3.70
2022-08-28T06:34:02.525Z,3.22
2022-08-28T06:36:30.856Z,3.88
2022-08-28T06:38:58.729Z,3.72
2022-08-28T06:41:32.522Z,3.28
2022-08-28T06:43:59.424Z,3.30
2022-08-28T06:46:26.671Z,3.75
2022-08-28T06:48:53.263Z,3.17
2022-08-28T06:51:19.950Z,3.42
2022-08-28T06:53:49.685Z,3.42
2022-08-28T06:56:26.277Z,3.80
2022-08-28T06:58:56.723Z,3.70
2022-08-28T07:01:27.132Z,3.53
2022-08-28T07:03:55.604Z,4.00
2022-08-28T07:06:23.390Z,3.92
2022-08-28T07:08:50.999Z,3.40
2022-08-28T07:11:29.772Z,3.55
2022-08-28T07:13:56.907Z,3.13
2022-08-28T07:16:26.504Z,3.78
2022-08-28T07:18:53.678Z,3.63
2022-08-28T07:21:20.626Z,3.65
2022-08-28T07:23:47.780Z,3.55
2022-08-28T07:26:17.276Z,3.47
2022-08-28T07:28:43.800Z,3.58
2022-08-28T07:31:26.118Z,4.07
2022-08-28T07:33:54.265Z,3.75
2022-08-28T07:36:29.757Z,3.63
2022-08-28T07:38:58.250Z,3.78
2022-08-28T07:41:30.570Z,3.20
2022-08-28T07:44:15.761Z,3.50
2022-08-28T07:46:43.162Z,3.50
2022-08-28T07:49:10.558Z,3.15
2022-08-28T07:51:37.274Z,3.03
2022-08-28T07:54:04.652Z,3.38
2022-08-28T07:56:32.118Z,3.50
2022-08-28T07:59:00.068Z,3.78
2022-08-28T08:01:30.560Z,3.72
2022-08-28T08:04:01.592Z,3.35
2022-08-28T08:06:33.778Z,3.25
2022-08-28T08:09:01.672Z,3.90
2022-08-28T08:11:28.180Z,3.22
2022-08-28T08:14:03.747Z,3.45
2022-08-28T08:16:34.476Z,2.97
2022-08-28T08:19:02.154Z,3.58
2022-08-28T08:21:30.405Z,4.10
2022-08-28T08:23:58.194Z,3.92
2022-08-28T08:26:28.041Z,3.97
2022-08-28T08:28:55.886Z,3.92
2022-08-28T08:31:27.640Z,3.85
2022-08-28T08:33:57.262Z,3.55
2022-08-28T08:36:25.951Z,3.42
2022-08-28T08:38:59.808Z,3.58
2022-08-28T08:41:33.835Z,3.40
2022-08-28T08:44:21.219Z,3.95
2022-08-28T08:46:53.370Z,3.67
2022-08-28T08:49:28.124Z,3.95
2022-08-28T08:52:13.264Z,3.30
2022-08-28T08:54:45.097Z,3.55
2022-08-28T08:57:13.534Z,4.30
2022-08-28T08:59:40.245Z,3.45
2022-08-28T09:02:11.331Z,3.90
2022-08-28T09:04:46.443Z,3.95
2022-08-28T09:07:27.642Z,4.90
2022-08-28T09:09:56.166Z,3.80
2022-08-28T09:12:26.063Z,3.70
2022-08-28T09:15:05.085Z,3.83
2022-08-28T09:17:37.667Z,3.63
2022-08-28T09:20:08.967Z,4.05
2022-08-28T09:22:43.252Z,4.22
2022-08-28T09:25:51.405Z,3.90
2022-08-28T09:28:20.163Z,3.47
2022-08-28T09:30:58.656Z,3.40
2022-08-28T09:33:41.715Z,3.42
2022-08-28T09:36:32.451Z,3.78
2022-08-28T09:39:15.943Z,3.42
2022-08-28T09:42:10.532Z,4.30
2022-08-28T09:45:13.736Z,3.70
2022-08-28T09:47:46.705Z,3.88
2022-08-28T09:52:52.015Z,4.22
2022-08-28T09:55:35.705Z,3.60
2022-08-28T09:58:03.380Z,3.75
2022-08-28T10:00:35.827Z,4.45
2022-08-28T10:03:14.500Z,4.05
2022-08-28T10:05:48.670Z,3.28
2022-08-28T10:08:54.827Z,4.05
2022-08-28T10:11:27.187Z,4.05
2022-08-28T10:14:07.047Z,3.58
2022-08-28T10:16:37.478Z,3.38
2022-08-28T10:19:12.789Z,3.90
2022-08-28T10:21:47.124Z,3.38
2022-08-28T10:24:41.420Z,3.53
2022-08-28T10:27:11.872Z,3.80
2022-08-28T10:30:04.282Z,3.72
2022-08-28T10:33:07.449Z,4.18
2022-08-28T10:35:53.279Z,3.72
2022-08-28T10:38:25.007Z,4.00
2022-08-28T10:40:56.231Z,3.35
2022-08-28T10:43:33.726Z,4.25
2022-08-28T10:46:05.380Z,4.63
2022-08-28T10:48:54.830Z,4.45
2022-08-28T10:51:36.911Z,3.40
2022-08-28T10:54:44.448Z,3.60
2022-08-28T10:57:31.029Z,3.67
2022-08-28T10:59:58.654Z,3.50
2022-08-28T11:02:26.221Z,3.72
2022-08-28T11:04:58.222Z,3.40
2022-08-28T11:07:35.214Z,3.33
2022-08-28T11:10:29.718Z,3.17
2022-08-28T11:12:56.532Z,3.50
2022-08-28T11:15:38.120Z,3.05
2022-08-28T11:18:13.846Z,3.42
2022-08-28T11:20:42.171Z,3.10
2022-08-28T11:23:51.805Z,3.50
2022-08-28T11:26:27.143Z,3.13
2022-08-28T11:28:53.775Z,3.70
2022-08-28T11:31:28.933Z,3.55
2022-08-28T11:33:58.957Z,3.95
2022-08-28T11:36:26.416Z,3.50
2022-08-28T11:38:53.253Z,3.00
2022-08-28T11:41:53.302Z,3.58
2022-08-28T11:44:28.396Z,3.28
2022-08-28T11:47:33.877Z,2.78
2022-08-28T11:50:33.557Z,3.13
2022-08-28T11:53:24.904Z,3.13
2022-08-28T11:56:13.177Z,3.50
2022-08-28T11:59:09.973Z,3.25
2022-08-28T12:01:37.513Z,3.05
2022-08-28T12:04:30.198Z,4.20
2022-08-28T12:07:11.898Z,3.42
2022-08-28T12:10:07.124Z,3.20
2022-08-28T12:12:46.191Z,3.28
2022-08-28T12:15:27.983Z,3.45
2022-08-28T12:17:59.479Z,3.10
2022-08-28T12:20:59.799Z,3.13
2022-08-28T12:23:39.562Z,3.47
2022-08-28T12:26:12.434Z,3.20
2022-08-28T12:28:44.054Z,3.38
2022-08-28T12:31:18.572Z,3.20
2022-08-28T12:33:50.506Z,3.13
2022-08-28T12:36:19.099Z,2.72
2022-08-28T12:38:50.975Z,3.92
2022-08-28T12:41:18.451Z,3.28
2022-08-28T12:43:49.054Z,3.22
2022-08-28T12:46:20.382Z,4.05
2022-08-28T12:48:49.249Z,3.55
2022-08-28T12:51:21.991Z,4.05
2022-08-28T12:54:00.462Z,3.47
2022-08-28T12:56:30.078Z,3.45
2022-08-28T12:58:56.880Z,3.13
2022-08-28T13:01:33.424Z,3.65
2022-08-28T13:04:03.786Z,3.65
2022-08-28T13:06:36.518Z,3.97
2022-08-28T13:09:14.459Z,3.72
2022-08-28T13:11:49.134Z,4.13
2022-08-28T13:14:44.050Z,3.42
2022-08-28T13:17:12.342Z,3.85
2022-08-28T13:19:39.039Z,3.33
2022-08-28T13:22:08.593Z,3.10
2022-08-28T13:24:35.114Z,4.13
2022-08-28T13:27:16.595Z,3.72
2022-08-28T13:30:13.505Z,3.33
2022-08-28T13:32:40.550Z,3.38
2022-08-28T13:35:22.089Z,3.30
2022-08-28T13:37:57.314Z,3.30
2022-08-28T13:43:15.764Z,3.70
2022-08-28T13:45:45.078Z,3.50
2022-08-28T13:48:26.158Z,3.40
2022-08-28T13:51:10.812Z,3.45
2022-08-28T13:53:38.663Z,3.50
2022-08-28T13:56:05.824Z,3.80
2022-08-28T13:58:32.388Z,3.65
2022-08-28T14:00:59.109Z,3.75
2022-08-28T14:03:41.187Z,4.00
2022-08-28T14:06:14.059Z,4.07
2022-08-28T14:08:41.681Z,3.30
2022-08-28T14:11:08.546Z,3.75
2022-08-28T14:13:40.232Z,3.45
2022-08-28T14:16:07.896Z,3.45
2022-08-28T14:18:34.834Z,3.90
2022-08-28T14:21:06.834Z,3.10
2022-08-28T14:23:33.530Z,4.05
2022-08-28T14:26:00.033Z,3.35
2022-08-28T14:28:26.642Z,3.85
2022-08-28T14:30:53.219Z,3.70
2022-08-28T14:33:20.699Z,4.10
2022-08-28T14:35:48.791Z,3.80
2022-08-28T14:38:15.642Z,3.47
2022-08-28T14:40:43.884Z,3.97
2022-08-28T14:43:11.227Z,4.40
2022-08-28T14:45:47.329Z,3.40
2022-08-28T14:48:17.507Z,3.80
2022-08-28T14:50:46.507Z,3.42
2022-08-28T14:53:13.827Z,3.17
2022-08-28T14:55:42.764Z,3.70
2022-08-28T14:58:09.341Z,3.78
2022-08-28T15:00:44.205Z,3.38
2022-08-28T15:03:11.036Z,3.47
2022-08-28T15:05:37.641Z,3.10
2022-08-28T15:08:14.955Z,4.10
2022-08-28T15:10:42.289Z,3.30
2022-08-28T15:13:13.241Z,3.88
2022-08-28T15:15:42.491Z,4.57
2022-08-28T15:18:10.221Z,3.40
2022-08-28T15:20:39.241Z,4.03
2022-08-28T15:23:05.987Z,3.17
2022-08-28T15:25:32.566Z,3.53
2022-08-28T15:27:59.063Z,3.70
2022-08-28T15:30:25.598Z,4.07
2022-08-28T15:32:52.656Z,3.42
2022-08-28T15:35:19.186Z,3.63
2022-08-28T15:37:45.729Z,3.85
2022-08-28T15:40:30.830Z,3.42
2022-08-28T15:42:57.491Z,3.83
2022-08-28T15:45:24.224Z,3.47
2022-08-28T15:47:50.868Z,4.35
2022-08-28T15:50:19.887Z,3.78
2022-08-28T15:52:46.756Z,3.95
2022-08-28T15:55:13.678Z,3.97
2022-08-28T15:57:40.250Z,3.65
2022-08-28T16:00:10.340Z,4.28
2022-08-28T16:02:37.436Z,4.13
2022-08-28T16:05:04.186Z,3.70
2022-08-28T16:07:30.699Z,3.33
2022-08-28T16:09:57.192Z,3.72
2022-08-28T16:12:25.402Z,4.40
2022-08-28T16:14:51.978Z,4.50
2022-08-28T16:17:18.939Z,3.67
2022-08-28T16:19:46.573Z,4.90
2022-08-28T16:22:15.839Z,4.70
2022-08-28T16:24:42.814Z,3.83
2022-08-28T16:27:14.666Z,4.20
2022-08-28T16:29:42.602Z,4.03
2022-08-28T16:32:09.454Z,4.07
2022-08-28T16:34:38.632Z,4.72
2022-08-28T16:37:06.072Z,4.00
2022-08-28T16:39:35.383Z,5.13
2022-08-28T16:42:02.023Z,3.95
2022-08-28T16:44:28.569Z,4.90
2022-08-28T16:46:55.583Z,4.80
2022-08-28T16:49:23.582Z,4.50
2022-08-28T16:51:50.139Z,5.32
2022-08-28T16:54:18.123Z,4.95
2022-08-28T16:56:45.866Z,5.28
2022-08-28T16:59:17.397Z,5.03
2022-08-28T17:01:44.281Z,5.20
2022-08-28T17:04:12.201Z,5.40
2022-08-28T17:06:39.951Z,5.30
2022-08-28T17:09:06.772Z,4.70
2022-08-28T17:11:33.258Z,5.15
2022-08-28T17:14:00.483Z,5.18
2022-08-28T17:16:29.702Z,5.22
2022-08-28T17:18:56.317Z,5.45
2022-08-28T17:21:41.810Z,5.70
2022-08-28T17:24:12.404Z,4.85
2022-08-28T17:26:40.534Z,5.70
2022-08-28T17:29:07.092Z,5.18
2022-08-28T17:31:33.759Z,5.32
2022-08-28T17:34:00.417Z,5.50
2022-08-28T17:36:32.730Z,6.07
2022-08-28T17:39:04.831Z,5.78
2022-08-28T17:41:33.679Z,6.03
2022-08-28T17:44:01.278Z,5.40
2022-08-28T17:46:27.953Z,5.90
2022-08-28T17:48:56.227Z,5.60
2022-08-28T17:51:42.869Z,5.75
2022-08-28T17:54:15.655Z,5.57
2022-08-28T17:56:42.488Z,5.70
2022-08-28T17:59:10.078Z,5.70
2022-08-28T18:01:36.644Z,6.13
2022-08-28T18:04:05.017Z,5.72
2022-08-28T18:06:34.728Z,6.00
2022-08-28T18:09:01.376Z,5.65
2022-08-28T18:11:28.216Z,5.68
2022-08-28T18:13:54.756Z,5.95
2022-08-28T18:16:21.561Z,6.55
2022-08-28T18:18:48.226Z,5.85
2022-08-28T18:21:14.724Z,5.88
2022-08-28T18:23:41.228Z,6.43
2022-08-28T18:26:08.747Z,6.70
2022-08-28T18:28:35.764Z,6.15
2022-08-28T18:31:03.082Z,5.65
2022-08-28T18:33:29.661Z,5.95
2022-08-28T18:35:56.721Z,6.78
2022-08-28T18:38:27.550Z,6.13
2022-08-28T18:40:54.972Z,6.35
2022-08-28T18:43:22.381Z,6.28
2022-08-28T18:45:52.146Z,6.40
2022-08-28T18:48:19.241Z,5.53
2022-08-28T18:50:48.211Z,5.97
2022-08-28T18:53:16.191Z,5.88
2022-08-28T18:55:42.712Z,6.50
2022-08-28T18:58:11.210Z,5.70
2022-08-28T19:00:42.310Z,6.18
2022-08-28T19:03:09.259Z,5.65
2022-08-28T19:05:36.518Z,6.25
2022-08-28T19:08:03.490Z,6.47
2022-08-28T19:10:34.729Z,5.55
2022-08-28T19:13:01.978Z,5.60
2022-08-28T19:15:28.588Z,5.68
2022-08-28T19:17:55.312Z,5.70
2022-08-28T19:20:21.851Z,5.40
2022-08-28T19:22:48.729Z,5.47
2022-08-28T19:25:27.593Z,5.95
2022-08-28T19:27:58.869Z,5.68
2022-08-28T19:30:26.536Z,5.90
2022-08-28T19:32:53.212Z,6.07
2022-08-28T19:35:19.752Z,6.15
2022-08-28T19:37:47.030Z,5.40
2022-08-28T19:40:13.656Z,6.10
2022-08-28T19:42:40.674Z,5.65
2022-08-28T19:45:08.790Z,5.65
2022-08-28T19:47:35.883Z,6.45
2022-08-28T19:50:03.174Z,5.20
2022-08-28T19:52:29.868Z,5.07
2022-08-28T19:54:56.676Z,5.97
2022-08-28T19:57:23.202Z,6.03
2022-08-28T19:59:49.718Z,5.90
2022-08-28T20:02:16.259Z,5.55
2022-08-28T20:04:42.851Z,6.05
2022-08-28T20:07:09.427Z,5.70
2022-08-28T20:09:35.941Z,6.00
2022-08-28T20:12:03.595Z,6.15
2022-08-28T20:14:30.171Z,6.30
2022-08-28T20:16:58.143Z,6.32
2022-08-28T20:19:24.673Z,6.38
2022-08-28T20:21:51.389Z,6.22
2022-08-28T20:24:21.867Z,6.65
2022-08-28T20:26:49.155Z,5.25
2022-08-28T20:29:16.895Z,6.20
2022-08-28T20:31:46.168Z,6.18
2022-08-28T20:34:14.979Z,6.03
2022-08-28T20:36:41.600Z,6.07
2022-08-28T20:39:09.306Z,6.82
2022-08-28T20:41:37.977Z,6.35
2022-08-28T20:44:06.748Z,6.40
2022-08-28T20:46:38.513Z,6.63
2022-08-28T20:49:11.511Z,7.07
2022-08-28T20:51:56.218Z,6.30
2022-08-28T20:54:26.112Z,6.40
2022-08-28T20:56:52.759Z,5.80
2022-08-28T20:59:20.110Z,6.47
2022-08-28T21:01:49.495Z,6.38
2022-08-28T21:04:16.124Z,6.25
2022-08-28T21:06:46.449Z,5.78
2022-08-28T21:09:17.085Z,6.03
2022-08-28T21:11:44.245Z,5.95
2022-08-28T21:14:10.976Z,6.30
2022-08-28T21:16:38.665Z,6.13
2022-08-28T21:19:15.723Z,5.95
2022-08-28T21:21:43.653Z,6.30
2022-08-28T21:24:12.615Z,6.80
2022-08-28T21:26:47.133Z,6.68
2022-08-28T21:29:14.586Z,6.70
2022-08-28T21:31:42.684Z,6.53
2022-08-28T21:34:09.944Z,6.63
2022-08-28T21:36:38.004Z,6.78
2022-08-28T21:39:05.316Z,6.60
2022-08-28T21:41:32.104Z,6.50
2022-08-28T21:43:59.416Z,6.25
2022-08-28T21:46:27.569Z,6.30
2022-08-28T21:48:56.139Z,6.47
2022-08-28T21:51:23.313Z,6.75
2022-08-28T21:53:50.448Z,6.65
2022-08-28T21:56:25.975Z,7.05
2022-08-28T21:58:54.283Z,6.47
2022-08-28T22:01:21.697Z,6.53
2022-08-28T22:03:48.232Z,6.95
2022-08-28T22:06:18.284Z,6.43
2022-08-28T22:08:45.988Z,6.88
2022-08-28T22:11:13.448Z,7.07
2022-08-28T22:13:42.161Z,6.55
2022-08-28T22:16:10.330Z,6.65
2022-08-28T22:18:37.195Z,6.57
2022-08-28T22:21:22.280Z,6.50
2022-08-28T22:23:48.759Z,6.95
2022-08-28T22:26:19.147Z,6.65
2022-08-28T22:28:45.788Z,7.00
2022-08-28T22:31:12.407Z,6.97
2022-08-28T22:33:39.114Z,6.85
2022-08-28T22:36:05.995Z,7.35
2022-08-28T22:38:32.741Z,7.20
2022-08-28T22:40:59.246Z,7.40
2022-08-28T22:43:26.706Z,7.10
2022-08-28T22:45:53.431Z,7.35
2022-08-28T22:48:19.991Z,6.88
2022-08-28T22:50:47.554Z,7.68
2022-08-28T22:53:17.222Z,7.05
2022-08-28T22:55:44.397Z,6.97
2022-08-28T22:58:12.844Z,6.97
2022-08-28T23:00:41.637Z,7.85
2022-08-28T23:03:08.318Z,6.82
2022-08-28T23:05:34.949Z,6.90
2022-08-28T23:08:01.468Z,7.45
2022-08-28T23:10:48.299Z,7.10
2022-08-28T23:13:15.130Z,6.93
2022-08-28T23:15:42.074Z,6.68
2022-08-28T23:18:08.575Z,6.40
2022-08-28T23:20:35.562Z,6.65
2022-08-28T23:23:02.369Z,6.20
2022-08-28T23:25:28.918Z,6.63
2022-08-28T23:27:55.908Z,6.68
2022-08-28T23:30:22.529Z,6.75
2022-08-28T23:32:52.141Z,7.35
2022-08-28T23:35:20.092Z,6.57
2022-08-28T23:37:52.058Z,6.45
2022-08-28T23:40:21.744Z,7.00
2022-08-28T23:42:48.800Z,6.45
2022-08-28T23:45:16.578Z,6.38
2022-08-28T23:47:44.226Z,6.38
2022-08-28T23:50:18.394Z,6.53
2022-08-28T23:52:45.254Z,6.60
2022-08-28T23:55:13.113Z,6.53
2022-08-28T23:57:40.119Z,5.95
